sensor_id;sensor_type;location;lat;lon;timestamp;pressure;altitude;pressure_sealevel;temperature;humidity
49102;BME280;34913;47.520;19.186;2023-10-08T00:01:15;99953.88;;;19.08;41.48
49102;BME280;34913;47.520;19.186;2023-10-08T00:03:45;99949.81;;;19.12;41.17
49102;BME280;34913;47.520;19.186;2023-10-08T00:06:15;99949.44;;;19.15;41.33
49102;BME280;34913;47.520;19.186;2023-10-08T00:08:40;99948.03;;;19.19;41.18
49102;BME280;34913;47.520;19.186;2023-10-08T00:11:06;99933.13;;;19.17;41.22
49102;BME280;34913;47.520;19.186;2023-10-08T00:13:33;99930.91;;;19.20;40.80
49102;BME280;34913;47.520;19.186;2023-10-08T00:16:12;99935.91;;;19.23;40.67
49102;BME280;34913;47.520;19.186;2023-10-08T00:18:42;99938.41;;;19.25;40.84
49102;BME280;34913;47.520;19.186;2023-10-08T00:21:18;99929.88;;;19.21;41.13
49102;BME280;34913;47.520;19.186;2023-10-08T00:23:53;99921.09;;;19.28;40.39
49102;BME280;34913;47.520;19.186;2023-10-08T00:26:21;99928.28;;;19.27;41.37
49102;BME280;34913;47.520;19.186;2023-10-08T00:28:55;99927.47;;;19.27;40.46
49102;BME280;34913;47.520;19.186;2023-10-08T00:31:21;99927.28;;;19.28;40.55
49102;BME280;34913;47.520;19.186;2023-10-08T00:33:52;99937.03;;;19.29;40.66
49102;BME280;34913;47.520;19.186;2023-10-08T00:36:18;99930.34;;;19.25;40.96
49102;BME280;34913;47.520;19.186;2023-10-08T00:38:44;99924.59;;;19.28;40.67
49102;BME280;34913;47.520;19.186;2023-10-08T00:41:13;99911.22;;;19.35;40.35
49102;BME280;34913;47.520;19.186;2023-10-08T00:43:42;99909.56;;;19.34;40.76
49102;BME280;34913;47.520;19.186;2023-10-08T00:46:10;99899.28;;;19.37;40.87
49102;BME280;34913;47.520;19.186;2023-10-08T00:49:02;99893.31;;;19.42;40.91
49102;BME280;34913;47.520;19.186;2023-10-08T00:51:54;99886.91;;;19.43;41.04
49102;BME280;34913;47.520;19.186;2023-10-08T00:54:32;99893.22;;;19.35;40.96
49102;BME280;34913;47.520;19.186;2023-10-08T00:56:59;99896.66;;;19.29;41.20
49102;BME280;34913;47.520;19.186;2023-10-08T00:59:30;99890.47;;;19.29;41.06
49102;BME280;34913;47.520;19.186;2023-10-08T01:02:04;99896.75;;;19.21;41.55
49102;BME280;34913;47.520;19.186;2023-10-08T01:04:39;99887.56;;;19.15;41.25
49102;BME280;34913;47.520;19.186;2023-10-08T01:07:07;99887.94;;;19.12;41.45
49102;BME280;34913;47.520;19.186;2023-10-08T01:09:39;99895.91;;;19.06;41.92
49102;BME280;34913;47.520;19.186;2023-10-08T01:14:38;99890.31;;;18.92;42.18
49102;BME280;34913;47.520;19.186;2023-10-08T01:17:08;99889.88;;;18.89;42.86
49102;BME280;34913;47.520;19.186;2023-10-08T01:19:34;99872.72;;;18.90;42.38
49102;BME280;34913;47.520;19.186;2023-10-08T01:22:05;99872.72;;;18.90;42.26
49102;BME280;34913;47.520;19.186;2023-10-08T01:24:42;99879.56;;;18.92;42.41
49102;BME280;34913;47.520;19.186;2023-10-08T01:27:08;99868.28;;;18.97;42.30
49102;BME280;34913;47.520;19.186;2023-10-08T01:29:39;99878.84;;;18.99;42.20
49102;BME280;34913;47.520;19.186;2023-10-08T01:32:05;99875.13;;;19.00;42.09
49102;BME280;34913;47.520;19.186;2023-10-08T01:34:36;99862.06;;;18.96;42.54
49102;BME280;34913;47.520;19.186;2023-10-08T01:37:02;99856.56;;;18.90;42.67
49102;BME280;34913;47.520;19.186;2023-10-08T01:39:34;99862.78;;;18.90;42.94
49102;BME280;34913;47.520;19.186;2023-10-08T01:42:00;99857.66;;;18.95;42.60
49102;BME280;34913;47.520;19.186;2023-10-08T01:44:25;99869.53;;;18.86;42.98
49102;BME280;34913;47.520;19.186;2023-10-08T01:46:51;99857.22;;;18.92;42.80
49102;BME280;34913;47.520;19.186;2023-10-08T01:49:18;99848.41;;;18.83;43.19
49102;BME280;34913;47.520;19.186;2023-10-08T01:51:47;99851.09;;;18.83;43.62
49102;BME280;34913;47.520;19.186;2023-10-08T01:54:13;99842.91;;;18.77;43.44
49102;BME280;34913;47.520;19.186;2023-10-08T01:56:41;99849.59;;;18.66;43.89
49102;BME280;34913;47.520;19.186;2023-10-08T01:59:10;99849.91;;;18.63;43.79
49102;BME280;34913;47.520;19.186;2023-10-08T02:01:37;99847.09;;;18.56;44.34
49102;BME280;34913;47.520;19.186;2023-10-08T02:04:05;99841.56;;;18.58;44.01
49102;BME280;34913;47.520;19.186;2023-10-08T02:06:33;99848.41;;;18.60;44.11
49102;BME280;34913;47.520;19.186;2023-10-08T02:09:00;99844.06;;;18.59;44.03
49102;BME280;34913;47.520;19.186;2023-10-08T02:11:31;99850.66;;;18.57;44.27
49102;BME280;34913;47.520;19.186;2023-10-08T02:13:57;99850.28;;;18.60;44.19
49102;BME280;34913;47.520;19.186;2023-10-08T02:16:22;99840.63;;;18.51;44.48
49102;BME280;34913;47.520;19.186;2023-10-08T02:18:48;99838.28;;;18.48;45.04
49102;BME280;34913;47.520;19.186;2023-10-08T02:21:15;99838.72;;;18.36;45.24
49102;BME280;34913;47.520;19.186;2023-10-08T02:23:40;99845.31;;;18.34;45.79
49102;BME280;34913;47.520;19.186;2023-10-08T02:26:09;99842.69;;;18.26;45.83
49102;BME280;34913;47.520;19.186;2023-10-08T02:28:36;99832.38;;;18.29;45.79
49102;BME280;34913;47.520;19.186;2023-10-08T02:31:04;99825.34;;;18.28;45.89
49102;BME280;34913;47.520;19.186;2023-10-08T02:33:29;99821.19;;;18.26;46.33
49102;BME280;34913;47.520;19.186;2023-10-08T02:35:55;99821.53;;;18.23;46.67
49102;BME280;34913;47.520;19.186;2023-10-08T02:38:21;99826.25;;;18.21;46.57
49102;BME280;34913;47.520;19.186;2023-10-08T02:40:48;99828.16;;;18.12;47.40
49102;BME280;34913;47.520;19.186;2023-10-08T02:43:14;99815.63;;;18.04;47.33
49102;BME280;34913;47.520;19.186;2023-10-08T02:45:43;99819.69;;;18.00;48.01
49102;BME280;34913;47.520;19.186;2023-10-08T02:48:13;99819.88;;;17.99;48.16
49102;BME280;34913;47.520;19.186;2023-10-08T02:50:42;99828.09;;;17.97;48.24
49102;BME280;34913;47.520;19.186;2023-10-08T02:53:08;99830.13;;;17.95;48.34
49102;BME280;34913;47.520;19.186;2023-10-08T02:55:38;99841.53;;;17.97;48.48
49102;BME280;34913;47.520;19.186;2023-10-08T02:58:09;99836.53;;;17.94;48.81
49102;BME280;34913;47.520;19.186;2023-10-08T03:00:42;99820.03;;;17.97;48.39
49102;BME280;34913;47.520;19.186;2023-10-08T03:03:08;99799.41;;;17.98;48.71
49102;BME280;34913;47.520;19.186;2023-10-08T03:05:53;99809.75;;;18.09;47.76
49102;BME280;34913;47.520;19.186;2023-10-08T03:08:22;99805.59;;;18.21;47.48
49102;BME280;34913;47.520;19.186;2023-10-08T03:10:51;99804.81;;;18.12;48.04
49102;BME280;34913;47.520;19.186;2023-10-08T03:13:21;99805.47;;;18.14;48.26
49102;BME280;34913;47.520;19.186;2023-10-08T03:15:47;99799.28;;;18.14;48.13
49102;BME280;34913;47.520;19.186;2023-10-08T03:18:29;99809.50;;;18.19;48.46
49102;BME280;34913;47.520;19.186;2023-10-08T03:21:05;99807.31;;;18.14;48.43
49102;BME280;34913;47.520;19.186;2023-10-08T03:23:45;99812.34;;;18.17;48.56
49102;BME280;34913;47.520;19.186;2023-10-08T03:26:13;99807.88;;;18.09;48.90
49102;BME280;34913;47.520;19.186;2023-10-08T03:29:03;99803.88;;;18.05;48.89
49102;BME280;34913;47.520;19.186;2023-10-08T03:31:41;99809.97;;;17.99;49.28
49102;BME280;34913;47.520;19.186;2023-10-08T03:34:16;99805.31;;;17.93;49.53
49102;BME280;34913;47.520;19.186;2023-10-08T03:36:44;99805.31;;;17.93;49.39
49102;BME280;34913;47.520;19.186;2023-10-08T03:39:17;99804.94;;;17.96;49.44
49102;BME280;34913;47.520;19.186;2023-10-08T03:41:46;99787.63;;;17.99;49.36
49102;BME280;34913;47.520;19.186;2023-10-08T03:44:24;99782.00;;;17.94;49.47
49102;BME280;34913;47.520;19.186;2023-10-08T03:46:50;99765.88;;;17.94;49.29
49102;BME280;34913;47.520;19.186;2023-10-08T03:49:17;99780.47;;;17.91;49.59
49102;BME280;34913;47.520;19.186;2023-10-08T03:51:46;99763.25;;;17.85;50.14
49102;BME280;34913;47.520;19.186;2023-10-08T03:54:11;99768.13;;;17.82;50.78
49102;BME280;34913;47.520;19.186;2023-10-08T03:56:40;99765.81;;;17.79;50.41
49102;BME280;34913;47.520;19.186;2023-10-08T03:59:17;99775.88;;;17.77;51.17
49102;BME280;34913;47.520;19.186;2023-10-08T04:01:46;99767.34;;;17.73;51.03
49102;BME280;34913;47.520;19.186;2023-10-08T04:04:22;99785.25;;;17.50;52.86
49102;BME280;34913;47.520;19.186;2023-10-08T04:06:55;99765.44;;;17.51;51.77
49102;BME280;34913;47.520;19.186;2023-10-08T04:09:41;99774.75;;;17.40;52.69
49102;BME280;34913;47.520;19.186;2023-10-08T04:12:07;99766.56;;;17.34;51.77
49102;BME280;34913;47.520;19.186;2023-10-08T04:14:36;99760.75;;;17.22;51.96
49102;BME280;34913;47.520;19.186;2023-10-08T04:17:01;99760.66;;;17.07;54.51
49102;BME280;34913;47.520;19.186;2023-10-08T04:19:29;99737.59;;;16.90;53.09
49102;BME280;34913;47.520;19.186;2023-10-08T04:21:56;99760.03;;;16.89;53.79
49102;BME280;34913;47.520;19.186;2023-10-08T04:24:26;99752.91;;;16.73;54.90
49102;BME280;34913;47.520;19.186;2023-10-08T04:27:09;99748.56;;;16.56;55.86
49102;BME280;34913;47.520;19.186;2023-10-08T04:29:35;99754.56;;;16.58;54.65
49102;BME280;34913;47.520;19.186;2023-10-08T04:32:02;99747.38;;;16.58;53.44
49102;BME280;34913;47.520;19.186;2023-10-08T04:34:37;99752.59;;;16.60;54.64
49102;BME280;34913;47.520;19.186;2023-10-08T04:37:03;99749.88;;;16.68;54.16
49102;BME280;34913;47.520;19.186;2023-10-08T04:39:41;99755.09;;;16.69;53.63
49102;BME280;34913;47.520;19.186;2023-10-08T04:42:12;99758.22;;;16.81;53.32
49102;BME280;34913;47.520;19.186;2023-10-08T04:44:39;99752.72;;;16.83;53.31
49102;BME280;34913;47.520;19.186;2023-10-08T04:47:06;99760.38;;;16.94;52.78
49102;BME280;34913;47.520;19.186;2023-10-08T04:49:52;99748.50;;;16.88;53.92
49102;BME280;34913;47.520;19.186;2023-10-08T04:52:18;99755.69;;;16.88;54.06
49102;BME280;34913;47.520;19.186;2023-10-08T04:54:45;99750.19;;;16.81;54.96
49102;BME280;34913;47.520;19.186;2023-10-08T04:57:17;99755.09;;;16.69;55.89
49102;BME280;34913;47.520;19.186;2023-10-08T04:59:44;99761.94;;;16.72;56.07
49102;BME280;34913;47.520;19.186;2023-10-08T05:02:10;99760.28;;;16.71;55.42
49102;BME280;34913;47.520;19.186;2023-10-08T05:04:46;99748.28;;;16.98;53.91
49102;BME280;34913;47.520;19.186;2023-10-08T05:07:32;99742.19;;;17.12;54.31
49102;BME280;34913;47.520;19.186;2023-10-08T05:10:10;99746.78;;;17.35;53.20
49102;BME280;34913;47.520;19.186;2023-10-08T05:12:37;99742.78;;;17.53;53.01
49102;BME280;34913;47.520;19.186;2023-10-08T05:15:04;99739.09;;;17.85;51.90
49102;BME280;34913;47.520;19.186;2023-10-08T05:17:46;99737.56;;;18.06;51.43
49102;BME280;34913;47.520;19.186;2023-10-08T05:20:32;99740.84;;;18.31;50.39
49102;BME280;34913;47.520;19.186;2023-10-08T05:23:12;99743.66;;;18.52;49.89
49102;BME280;34913;47.520;19.186;2023-10-08T05:26:06;99747.75;;;18.63;49.54
49102;BME280;34913;47.520;19.186;2023-10-08T05:28:39;99748.41;;;18.65;49.69
49102;BME280;34913;47.520;19.186;2023-10-08T05:31:23;99755.84;;;18.78;49.39
49102;BME280;34913;47.520;19.186;2023-10-08T05:34:08;99766.69;;;18.84;49.25
49102;BME280;34913;47.520;19.186;2023-10-08T05:36:42;99771.53;;;18.89;49.29
49102;BME280;34913;47.520;19.186;2023-10-08T05:39:26;99773.56;;;19.02;49.07
49102;BME280;34913;47.520;19.186;2023-10-08T05:41:57;99771.03;;;19.15;49.07
49102;BME280;34913;47.520;19.186;2023-10-08T05:44:41;99766.38;;;19.23;48.81
49102;BME280;34913;47.520;19.186;2023-10-08T05:47:13;99758.41;;;19.30;48.26
49102;BME280;34913;47.520;19.186;2023-10-08T05:50:03;99765.06;;;19.34;49.09
49102;BME280;34913;47.520;19.186;2023-10-08T05:52:49;99771.28;;;19.35;48.93
49102;BME280;34913;47.520;19.186;2023-10-08T05:55:29;99778.34;;;19.36;48.54
49102;BME280;34913;47.520;19.186;2023-10-08T05:58:13;99774.44;;;19.38;49.11
49102;BME280;34913;47.520;19.186;2023-10-08T06:00:43;99777.56;;;19.42;48.92
49102;BME280;34913;47.520;19.186;2023-10-08T06:03:29;99787.97;;;19.45;48.77
49102;BME280;34913;47.520;19.186;2023-10-08T06:06:07;99786.38;;;19.50;48.53
49102;BME280;34913;47.520;19.186;2023-10-08T06:08:36;99804.22;;;19.51;49.57
49102;BME280;34913;47.520;19.186;2023-10-08T06:11:18;99792.59;;;19.51;48.99
49102;BME280;34913;47.520;19.186;2023-10-08T06:14:12;99783.50;;;19.52;49.60
49102;BME280;34913;47.520;19.186;2023-10-08T06:16:56;99801.97;;;19.55;49.28
49102;BME280;34913;47.520;19.186;2023-10-08T06:19:39;99801.13;;;19.55;50.44
49102;BME280;34913;47.520;19.186;2023-10-08T06:22:04;99797.41;;;19.56;50.15
49102;BME280;34913;47.520;19.186;2023-10-08T06:24:30;99806.00;;;19.59;49.48
49102;BME280;34913;47.520;19.186;2023-10-08T06:26:58;99806.81;;;19.60;49.71
49102;BME280;34913;47.520;19.186;2023-10-08T06:29:30;99808.84;;;19.58;49.76
49102;BME280;34913;47.520;19.186;2023-10-08T06:31:57;99811.38;;;19.59;49.92
49102;BME280;34913;47.520;19.186;2023-10-08T06:34:27;99818.44;;;19.60;50.49
49102;BME280;34913;47.520;19.186;2023-10-08T06:36:55;99821.63;;;19.56;50.92
49102;BME280;34913;47.520;19.186;2023-10-08T06:39:24;99819.78;;;19.56;51.14
49102;BME280;34913;47.520;19.186;2023-10-08T06:42:13;99821.47;;;19.57;51.27
49102;BME280;34913;47.520;19.186;2023-10-08T06:44:40;99820.53;;;19.65;50.72
49102;BME280;34913;47.520;19.186;2023-10-08T06:47:08;99827.34;;;19.61;51.26
49102;BME280;34913;47.520;19.186;2023-10-08T06:49:35;99819.34;;;19.67;50.75
49102;BME280;34913;47.520;19.186;2023-10-08T06:52:01;99812.53;;;19.71;50.44
49102;BME280;34913;47.520;19.186;2023-10-08T06:54:27;99819.69;;;19.64;50.45
49102;BME280;34913;47.520;19.186;2023-10-08T06:56:56;99818.13;;;19.70;50.51
49102;BME280;34913;47.520;19.186;2023-10-08T06:59:21;99807.06;;;19.65;51.78
49102;BME280;34913;47.520;19.186;2023-10-08T07:01:51;99811.53;;;19.58;50.95
49102;BME280;34913;47.520;19.186;2023-10-08T07:04:17;99812.00;;;19.61;50.69
49102;BME280;34913;47.520;19.186;2023-10-08T07:06:45;99815.44;;;19.55;52.76
49102;BME280;34913;47.520;19.186;2023-10-08T07:09:14;99825.91;;;19.50;51.93
49102;BME280;34913;47.520;19.186;2023-10-08T07:11:51;99824.06;;;19.50;51.06
49102;BME280;34913;47.520;19.186;2023-10-08T07:14:21;99816.28;;;19.41;52.49
49102;BME280;34913;47.520;19.186;2023-10-08T07:16:48;99818.03;;;19.48;51.44
49102;BME280;34913;47.520;19.186;2023-10-08T07:19:17;99804.03;;;19.53;51.77
49102;BME280;34913;47.520;19.186;2023-10-08T07:21:47;99798.44;;;19.55;51.88
49102;BME280;34913;47.520;19.186;2023-10-08T07:24:13;99787.38;;;19.64;54.31
49102;BME280;34913;47.520;19.186;2023-10-08T07:26:48;99793.59;;;19.65;54.64
49102;BME280;34913;47.520;19.186;2023-10-08T07:29:16;99790.25;;;19.77;53.03
49102;BME280;34913;47.520;19.186;2023-10-08T07:31:43;99795.56;;;19.92;53.06
49102;BME280;34913;47.520;19.186;2023-10-08T07:34:19;99809.34;;;20.04;52.81
49102;BME280;34913;47.520;19.186;2023-10-08T07:36:53;99814.59;;;20.12;52.16
49102;BME280;34913;47.520;19.186;2023-10-08T07:39:21;99814.59;;;20.12;52.32
49102;BME280;34913;47.520;19.186;2023-10-08T07:42:04;99807.16;;;20.14;50.86
49102;BME280;34913;47.520;19.186;2023-10-08T07:44:33;99808.72;;;20.23;50.73
49102;BME280;34913;47.520;19.186;2023-10-08T07:47:04;99799.25;;;20.34;50.50
49102;BME280;34913;47.520;19.186;2023-10-08T07:49:33;99795.94;;;20.32;51.04
49102;BME280;34913;47.520;19.186;2023-10-08T07:52:01;99798.69;;;20.39;50.92
49102;BME280;34913;47.520;19.186;2023-10-08T07:54:27;99793.81;;;20.49;50.96
49102;BME280;34913;47.520;19.186;2023-10-08T07:57:00;99802.34;;;20.52;51.84
49102;BME280;34913;47.520;19.186;2023-10-08T07:59:36;99791.16;;;20.55;51.25
49102;BME280;34913;47.520;19.186;2023-10-08T08:02:23;99786.41;;;20.57;51.48
49102;BME280;34913;47.520;19.186;2023-10-08T08:04:52;99789.38;;;20.69;51.66
49102;BME280;34913;47.520;19.186;2023-10-08T08:07:19;99793.63;;;20.78;51.28
49102;BME280;34913;47.520;19.186;2023-10-08T08:09:47;99802.97;;;20.82;51.68
49102;BME280;34913;47.520;19.186;2023-10-08T08:12:26;99806.50;;;20.83;51.28
49102;BME280;34913;47.520;19.186;2023-10-08T08:14:53;99806.53;;;20.89;50.92
49102;BME280;34913;47.520;19.186;2023-10-08T08:17:19;99806.81;;;21.01;51.02
49102;BME280;34913;47.520;19.186;2023-10-08T08:19:48;99818.63;;;21.00;50.79
49102;BME280;34913;47.520;19.186;2023-10-08T08:22:16;99822.44;;;21.12;51.20
49102;BME280;34913;47.520;19.186;2023-10-08T08:24:49;99819.78;;;21.19;51.21
49102;BME280;34913;47.520;19.186;2023-10-08T08:27:19;99813.84;;;21.30;50.37
49102;BME280;34913;47.520;19.186;2023-10-08T08:30:04;99829.84;;;21.32;51.26
49102;BME280;34913;47.520;19.186;2023-10-08T08:32:42;99835.22;;;21.32;52.06
49102;BME280;34913;47.520;19.186;2023-10-08T08:35:13;99840.28;;;21.41;51.03
49102;BME280;34913;47.520;19.186;2023-10-08T08:37:43;99834.72;;;21.50;51.15
49102;BME280;34913;47.520;19.186;2023-10-08T08:40:12;99832.28;;;21.68;49.66
49102;BME280;34913;47.520;19.186;2023-10-08T08:42:44;99819.22;;;21.78;49.78
49102;BME280;34913;47.520;19.186;2023-10-08T08:45:13;99821.09;;;21.84;50.45
49102;BME280;34913;47.520;19.186;2023-10-08T08:47:40;99818.22;;;21.99;49.92
49102;BME280;34913;47.520;19.186;2023-10-08T08:50:10;99828.84;;;22.07;49.98
49102;BME280;34913;47.520;19.186;2023-10-08T08:52:36;99816.59;;;22.05;49.99
49102;BME280;34913;47.520;19.186;2023-10-08T08:55:06;99821.59;;;22.08;49.54
49102;BME280;34913;47.520;19.186;2023-10-08T08:57:39;99827.41;;;22.05;49.95
49102;BME280;34913;47.520;19.186;2023-10-08T09:00:05;99831.38;;;22.09;50.20
49102;BME280;34913;47.520;19.186;2023-10-08T09:02:38;99829.28;;;22.11;49.96
49102;BME280;34913;47.520;19.186;2023-10-08T09:05:04;99839.72;;;22.14;51.14
49102;BME280;34913;47.520;19.186;2023-10-08T09:08:01;99838.69;;;22.21;50.68
49102;BME280;34913;47.520;19.186;2023-10-08T09:10:36;99842.19;;;22.15;50.89
49102;BME280;34913;47.520;19.186;2023-10-08T09:13:19;99836.97;;;22.07;51.47
49102;BME280;34913;47.520;19.186;2023-10-08T09:15:46;99844.00;;;22.01;52.02
49102;BME280;34913;47.520;19.186;2023-10-08T09:18:12;99859.63;;;22.06;51.28
49102;BME280;34913;47.520;19.186;2023-10-08T09:20:39;99858.22;;;22.17;50.40
49102;BME280;34913;47.520;19.186;2023-10-08T09:23:15;99877.16;;;22.23;51.28
49102;BME280;34913;47.520;19.186;2023-10-08T09:25:44;99874.84;;;22.14;50.85
49102;BME280;34913;47.520;19.186;2023-10-08T09:28:10;99879.75;;;22.03;51.90
49102;BME280;34913;47.520;19.186;2023-10-08T09:30:38;99888.69;;;21.91;51.78
49102;BME280;34913;47.520;19.186;2023-10-08T09:33:09;99893.84;;;21.86;52.24
49102;BME280;34913;47.520;19.186;2023-10-08T09:35:35;99909.63;;;21.76;52.20
49102;BME280;34913;47.520;19.186;2023-10-08T09:38:06;99912.50;;;21.67;53.70
49102;BME280;34913;47.520;19.186;2023-10-08T09:40:41;99922.19;;;21.55;53.44
49102;BME280;34913;47.520;19.186;2023-10-08T09:43:12;99926.53;;;21.50;54.15
49102;BME280;34913;47.520;19.186;2023-10-08T09:45:43;99938.47;;;21.34;54.31
49102;BME280;34913;47.520;19.186;2023-10-08T09:48:11;99923.19;;;21.19;54.47
49102;BME280;34913;47.520;19.186;2023-10-08T09:50:40;99926.31;;;21.23;54.88
49102;BME280;34913;47.520;19.186;2023-10-08T09:53:10;99932.50;;;21.17;55.04
49102;BME280;34913;47.520;19.186;2023-10-08T09:55:49;99952.25;;;21.17;55.17
49102;BME280;34913;47.520;19.186;2023-10-08T09:58:20;99949.69;;;21.09;55.48
49102;BME280;34913;47.520;19.186;2023-10-08T10:00:48;99949.81;;;21.01;56.01
49102;BME280;34913;47.520;19.186;2023-10-08T10:03:14;99977.59;;;20.95;56.32
49102;BME280;34913;47.520;19.186;2023-10-08T10:05:42;99986.72;;;20.73;56.96
49102;BME280;34913;47.520;19.186;2023-10-08T10:08:08;99990.63;;;20.49;57.51
49102;BME280;34913;47.520;19.186;2023-10-08T10:10:38;99992.81;;;20.24;57.36
49102;BME280;34913;47.520;19.186;2023-10-08T10:13:05;100005.28;;;19.95;57.14
49102;BME280;34913;47.520;19.186;2023-10-08T10:15:33;99997.50;;;19.86;57.57
49102;BME280;34913;47.520;19.186;2023-10-08T10:18:30;100001.97;;;19.78;57.26
49102;BME280;34913;47.520;19.186;2023-10-08T10:21:00;99987.09;;;19.53;58.24
49102;BME280;34913;47.520;19.186;2023-10-08T10:23:46;99975.03;;;19.64;58.21
49102;BME280;34913;47.520;19.186;2023-10-08T10:26:31;99992.03;;;19.79;58.44
49102;BME280;34913;47.520;19.186;2023-10-08T10:31:41;100011.81;;;19.71;58.86
49102;BME280;34913;47.520;19.186;2023-10-08T10:34:13;100002.41;;;19.82;58.89
49102;BME280;34913;47.520;19.186;2023-10-08T10:36:43;99997.88;;;19.83;59.48
49102;BME280;34913;47.520;19.186;2023-10-08T10:39:12;100000.66;;;19.89;60.84
49102;BME280;34913;47.520;19.186;2023-10-08T10:41:52;100003.81;;;19.93;59.69
49102;BME280;34913;47.520;19.186;2023-10-08T10:44:30;99999.91;;;20.10;59.40
49102;BME280;34913;47.520;19.186;2023-10-08T10:46:57;100011.09;;;20.28;58.51
49102;BME280;34913;47.520;19.186;2023-10-08T10:49:46;100001.69;;;20.39;57.63
49102;BME280;34913;47.520;19.186;2023-10-08T10:52:25;100025.13;;;20.39;57.51
49102;BME280;34913;47.520;19.186;2023-10-08T10:55:03;100013.34;;;20.25;56.82
49102;BME280;34913;47.520;19.186;2023-10-08T10:57:42;100017.25;;;20.22;56.79
49102;BME280;34913;47.520;19.186;2023-10-08T11:00:09;100016.28;;;20.30;55.92
49102;BME280;34913;47.520;19.186;2023-10-08T11:03:04;100013.53;;;20.23;54.90
49102;BME280;34913;47.520;19.186;2023-10-08T11:05:42;100021.16;;;20.20;53.85
49102;BME280;34913;47.520;19.186;2023-10-08T11:08:14;100021.38;;;20.03;52.57
49102;BME280;34913;47.520;19.186;2023-10-08T11:10:42;100038.75;;;19.86;52.08
49102;BME280;34913;47.520;19.186;2023-10-08T11:13:23;100038.94;;;19.70;52.89
49102;BME280;34913;47.520;19.186;2023-10-08T11:15:54;100032.72;;;19.69;52.26
49102;BME280;34913;47.520;19.186;2023-10-08T11:18:24;100030.19;;;19.83;51.68
49102;BME280;34913;47.520;19.186;2023-10-08T11:20:51;100040.22;;;19.89;52.67
49102;BME280;34913;47.520;19.186;2023-10-08T11:23:35;100037.06;;;19.85;51.25
49102;BME280;34913;47.520;19.186;2023-10-08T11:26:03;100039.28;;;19.67;51.28
49102;BME280;34913;47.520;19.186;2023-10-08T11:28:37;100030.84;;;19.70;51.52
49102;BME280;34913;47.520;19.186;2023-10-08T11:31:14;100041.72;;;19.76;51.63
49102;BME280;34913;47.520;19.186;2023-10-08T11:33:42;100035.16;;;19.56;53.17
49102;BME280;34913;47.520;19.186;2023-10-08T11:36:09;100049.59;;;19.63;53.31
49102;BME280;34913;47.520;19.186;2023-10-08T11:38:45;100042.28;;;19.49;54.09
49102;BME280;34913;47.520;19.186;2023-10-08T11:41:16;100038.81;;;19.63;53.74
49102;BME280;34913;47.520;19.186;2023-10-08T11:43:54;100041.31;;;19.65;53.60
49102;BME280;34913;47.520;19.186;2023-10-08T11:46:29;100046.53;;;19.66;54.32
49102;BME280;34913;47.520;19.186;2023-10-08T11:48:59;100039.22;;;19.75;53.67
49102;BME280;34913;47.520;19.186;2023-10-08T11:51:33;100054.06;;;19.71;53.46
49102;BME280;34913;47.520;19.186;2023-10-08T11:54:03;100059.16;;;19.80;51.69
49102;BME280;34913;47.520;19.186;2023-10-08T11:56:32;100064.78;;;19.56;52.92
49102;BME280;34913;47.520;19.186;2023-10-08T11:59:02;100070.13;;;19.41;51.89
49102;BME280;34913;47.520;19.186;2023-10-08T12:01:30;100077.63;;;19.31;51.71
49102;BME280;34913;47.520;19.186;2023-10-08T12:04:00;100093.00;;;19.22;52.59
49102;BME280;34913;47.520;19.186;2023-10-08T12:06:26;100086.34;;;19.10;53.80
49102;BME280;34913;47.520;19.186;2023-10-08T12:08:55;100097.69;;;19.06;52.98
49102;BME280;34913;47.520;19.186;2023-10-08T12:11:25;100119.94;;;18.91;53.89
49102;BME280;34913;47.520;19.186;2023-10-08T12:13:56;100111.19;;;18.66;53.77
49102;BME280;34913;47.520;19.186;2023-10-08T12:16:24;100103.97;;;18.59;54.06
49102;BME280;34913;47.520;19.186;2023-10-08T12:18:51;100113.09;;;18.50;53.59
49102;BME280;34913;47.520;19.186;2023-10-08T12:21:27;100116.50;;;18.35;53.36
49102;BME280;34913;47.520;19.186;2023-10-08T12:23:56;100128.47;;;18.17;52.20
49102;BME280;34913;47.520;19.186;2023-10-08T12:26:22;100131.88;;;18.10;51.63
49102;BME280;34913;47.520;19.186;2023-10-08T12:28:48;100139.59;;;18.05;50.65
49102;BME280;34913;47.520;19.186;2023-10-08T12:31:17;100135.63;;;17.93;50.81
49102;BME280;34913;47.520;19.186;2023-10-08T12:33:48;100153.25;;;17.79;51.05
49102;BME280;34913;47.520;19.186;2023-10-08T12:36:16;100143.81;;;17.67;50.93
49102;BME280;34913;47.520;19.186;2023-10-08T12:38:43;100144.47;;;17.61;51.27
49102;BME280;34913;47.520;19.186;2023-10-08T12:41:12;100149.34;;;17.66;51.03
49102;BME280;34913;47.520;19.186;2023-10-08T12:43:42;100158.25;;;17.66;51.23
49102;BME280;34913;47.520;19.186;2023-10-08T12:46:10;100150.22;;;17.74;50.41
49102;BME280;34913;47.520;19.186;2023-10-08T12:48:41;100156.56;;;17.65;51.33
49102;BME280;34913;47.520;19.186;2023-10-08T12:51:09;100165.66;;;17.80;50.25
49102;BME280;34913;47.520;19.186;2023-10-08T12:53:36;100164.47;;;17.83;50.19
49102;BME280;34913;47.520;19.186;2023-10-08T12:56:07;100179.56;;;17.68;49.60
49102;BME280;34913;47.520;19.186;2023-10-08T12:58:40;100194.31;;;17.47;50.59
49102;BME280;34913;47.520;19.186;2023-10-08T13:01:17;100194.16;;;17.57;49.76
49102;BME280;34913;47.520;19.186;2023-10-08T13:03:46;100196.31;;;17.37;51.03
49102;BME280;34913;47.520;19.186;2023-10-08T13:06:17;100199.69;;;17.39;50.03
49102;BME280;34913;47.520;19.186;2023-10-08T13:09:09;100205.22;;;17.46;49.88
49102;BME280;34913;47.520;19.186;2023-10-08T13:11:38;100201.16;;;17.34;50.55
49102;BME280;34913;47.520;19.186;2023-10-08T13:14:04;100217.78;;;17.37;49.62
49102;BME280;34913;47.520;19.186;2023-10-08T13:16:30;100203.66;;;17.19;50.04